createdAt,value
2022-12-08T00:01:10.039Z,1.39
2022-12-08T00:03:45.345Z,1.38
2022-12-08T00:06:43.354Z,1.39
2022-12-08T00:09:25.365Z,1.37
2022-12-08T00:12:00.709Z,1.37
2022-12-08T00:14:39.217Z,1.38
2022-12-08T00:17:15.723Z,1.37
2022-12-08T00:19:50.579Z,1.39
2022-12-08T00:22:24.024Z,1.42
2022-12-08T00:24:57.698Z,1.44
2022-12-08T00:27:31.201Z,1.47
2022-12-08T00:30:05.641Z,1.47
2022-12-08T00:32:39.097Z,1.41
2022-12-08T00:35:14.024Z,1.38
2022-12-08T00:37:50.486Z,1.30
2022-12-08T00:40:26.212Z,1.24
2022-12-08T00:42:59.628Z,1.19
2022-12-08T00:45:33.045Z,1.17
2022-12-08T00:48:09.309Z,1.12
2022-12-08T00:50:44.209Z,1.06
2022-12-08T00:53:17.728Z,1.02
2022-12-08T00:55:51.139Z,0.98
2022-12-08T00:58:24.577Z,0.95
2022-12-08T01:00:58.091Z,0.93
2022-12-08T01:03:31.607Z,0.88
2022-12-08T01:06:09.150Z,0.84
2022-12-08T01:08:43.260Z,0.81
2022-12-08T01:11:19.766Z,0.78
2022-12-08T01:13:53.224Z,0.75
2022-12-08T01:16:28.813Z,0.71
2022-12-08T01:19:02.704Z,0.68
2022-12-08T01:21:37.555Z,0.64
2022-12-08T01:24:13.432Z,0.61
2022-12-08T01:26:47.583Z,0.58
2022-12-08T01:29:21.313Z,0.56
2022-12-08T01:31:54.925Z,0.53
2022-12-08T01:34:28.389Z,0.52
2022-12-08T01:37:03.346Z,0.49
2022-12-08T01:39:36.879Z,0.47
2022-12-08T01:42:21.242Z,0.46
2022-12-08T01:45:01.279Z,0.43
2022-12-08T01:47:39.509Z,0.40
2022-12-08T01:50:15.289Z,0.38
2022-12-08T01:52:54.514Z,0.38
2022-12-08T01:55:34.253Z,0.35
2022-12-08T01:58:12.920Z,0.37
2022-12-08T02:00:46.756Z,0.38
2022-12-08T02:03:25.531Z,0.37
2022-12-08T02:05:59.948Z,0.37
2022-12-08T02:08:36.216Z,0.37
2022-12-08T02:11:12.115Z,0.35
2022-12-08T02:13:47.567Z,0.37
2022-12-08T02:16:36.692Z,0.40
2022-12-08T02:19:48.527Z,0.43
2022-12-08T02:22:29.557Z,0.36
2022-12-08T02:25:13.751Z,0.36
2022-12-08T02:28:00.141Z,0.35
2022-12-08T02:30:45.301Z,0.33
2022-12-08T02:33:56.969Z,0.33
2022-12-08T02:36:38.717Z,0.28
2022-12-08T02:39:24.703Z,0.28
2022-12-08T02:42:08.252Z,0.27
2022-12-08T02:44:49.042Z,0.26
2022-12-08T02:47:25.116Z,0.24
2022-12-08T02:50:00.721Z,0.23
2022-12-08T02:52:45.037Z,0.23
2022-12-08T02:55:24.834Z,0.21
2022-12-08T02:58:14.539Z,0.20
2022-12-08T03:01:02.459Z,0.21
2022-12-08T03:03:42.983Z,0.22
2022-12-08T03:06:29.898Z,0.25
2022-12-08T03:09:11.391Z,0.26
2022-12-08T03:11:51.933Z,0.29
2022-12-08T03:14:26.307Z,0.31
2022-12-08T03:17:01.978Z,0.34
2022-12-08T03:19:39.186Z,0.39
2022-12-08T03:22:17.155Z,0.41
2022-12-08T03:24:51.492Z,0.44
2022-12-08T03:27:29.407Z,0.45
2022-12-08T03:30:03.975Z,0.46
2022-12-08T03:32:47.847Z,0.47
2022-12-08T03:35:26.106Z,0.49
2022-12-08T03:38:06.101Z,0.51
2022-12-08T03:40:40.263Z,0.50
2022-12-08T03:43:13.705Z,0.51
2022-12-08T03:45:47.273Z,0.52
2022-12-08T03:48:20.727Z,0.55
2022-12-08T03:50:54.284Z,0.58
2022-12-08T03:53:29.567Z,0.57
2022-12-08T03:56:05.695Z,0.57
2022-12-08T03:58:39.189Z,0.58
2022-12-08T04:01:13.031Z,0.59
2022-12-08T04:03:46.585Z,0.59
2022-12-08T04:06:20.595Z,0.58
2022-12-08T04:08:55.246Z,0.70
2022-12-08T04:11:28.939Z,0.60
2022-12-08T04:14:02.489Z,0.60
2022-12-08T04:16:36.191Z,0.60
2022-12-08T04:19:10.200Z,0.60
2022-12-08T04:21:43.652Z,0.61
2022-12-08T04:24:18.716Z,0.60
2022-12-08T04:26:52.231Z,0.60
2022-12-08T04:29:25.866Z,0.61
2022-12-08T04:31:59.430Z,0.61
2022-12-08T04:34:33.086Z,0.62
2022-12-08T04:37:06.635Z,0.60
2022-12-08T04:39:41.673Z,0.61
2022-12-08T04:42:15.120Z,0.60
2022-12-08T04:44:48.521Z,0.61
2022-12-08T04:47:22.421Z,0.61
2022-12-08T04:49:55.903Z,0.61
2022-12-08T04:52:29.378Z,0.61
2022-12-08T04:55:04.906Z,0.59
2022-12-08T04:57:38.803Z,0.59
2022-12-08T05:00:13.790Z,0.60
2022-12-08T05:02:47.314Z,0.59
2022-12-08T05:05:20.866Z,0.58
2022-12-08T05:07:54.421Z,0.57
2022-12-08T05:10:29.371Z,0.55
2022-12-08T05:13:03.088Z,0.49
2022-12-08T05:15:36.639Z,0.45
2022-12-08T05:18:10.219Z,0.42
2022-12-08T05:20:43.637Z,0.39
2022-12-08T05:23:17.087Z,0.34
2022-12-08T05:25:51.893Z,0.28
2022-12-08T05:28:42.730Z,0.25
2022-12-08T05:31:18.501Z,0.21
2022-12-08T05:33:53.209Z,0.18
2022-12-08T05:36:26.786Z,0.16
2022-12-08T05:39:00.511Z,0.14
2022-12-08T05:41:35.595Z,0.12
2022-12-08T05:44:09.283Z,0.11
2022-12-08T05:46:42.894Z,0.12
2022-12-08T05:49:16.533Z,0.11
2022-12-08T05:51:50.194Z,0.11
2022-12-08T05:54:24.143Z,0.10
2022-12-08T05:56:58.704Z,0.21
2022-12-08T05:59:32.347Z,0.09
2022-12-08T06:02:05.963Z,0.06
2022-12-08T06:04:39.488Z,0.07
2022-12-08T06:07:16.031Z,0.04
2022-12-08T06:09:49.833Z,0.03
2022-12-08T06:12:24.898Z,0.01
2022-12-08T06:14:58.361Z,-0.01
2022-12-08T06:17:32.027Z,-0.01
2022-12-08T06:20:07.105Z,-0.03
2022-12-08T06:22:40.856Z,-0.05
2022-12-08T06:25:14.650Z,-0.05
2022-12-08T06:27:49.606Z,-0.08
2022-12-08T06:30:23.198Z,-0.08
2022-12-08T06:32:56.909Z,-0.09
2022-12-08T06:35:30.500Z,-0.11
2022-12-08T06:38:03.961Z,-0.12
2022-12-08T06:40:37.552Z,-0.14
2022-12-08T06:43:12.430Z,-0.17
2022-12-08T06:45:46.018Z,-0.19
2022-12-08T06:48:20.510Z,-0.22
2022-12-08T06:50:54.041Z,-0.24
2022-12-08T06:53:27.509Z,-0.23
2022-12-08T06:56:01.180Z,-0.25
2022-12-08T06:58:36.962Z,-0.25
2022-12-08T07:01:12.548Z,-0.28
2022-12-08T07:03:46.474Z,-0.27
2022-12-08T07:06:23.098Z,-0.26
2022-12-08T07:08:56.658Z,-0.27
2022-12-08T07:11:30.410Z,-0.24
2022-12-08T07:14:05.334Z,-0.23
2022-12-08T07:16:39.620Z,-0.23
2022-12-08T07:19:13.193Z,-0.22
2022-12-08T07:21:46.827Z,-0.20
2022-12-08T07:24:22.799Z,-0.18
2022-12-08T07:26:56.303Z,-0.17
2022-12-08T07:29:31.313Z,-0.18
2022-12-08T07:32:04.895Z,-0.15
2022-12-08T07:34:38.420Z,-0.12
2022-12-08T07:37:12.149Z,-0.09
2022-12-08T07:39:45.724Z,-0.08
2022-12-08T07:42:19.260Z,-0.04
2022-12-08T07:44:55.004Z,-0.01
2022-12-08T07:47:28.569Z,0.04
2022-12-08T07:50:02.373Z,0.09
2022-12-08T07:52:35.689Z,0.26
2022-12-08T07:55:10.099Z,0.20
2022-12-08T07:57:43.615Z,0.26
2022-12-08T08:00:19.443Z,0.35
2022-12-08T08:02:53.017Z,0.59
2022-12-08T08:05:26.649Z,1.01
2022-12-08T08:08:00.306Z,1.54
2022-12-08T08:10:33.923Z,2.02
2022-12-08T08:13:07.410Z,2.45
2022-12-08T08:15:42.469Z,2.76
2022-12-08T08:18:16.103Z,2.96
2022-12-08T08:20:49.649Z,3.03
2022-12-08T08:23:23.094Z,3.07
2022-12-08T08:25:56.965Z,3.11
2022-12-08T08:28:30.411Z,3.53
2022-12-08T08:31:05.632Z,3.37
2022-12-08T08:33:39.145Z,3.34
2022-12-08T08:36:12.872Z,3.30
2022-12-08T08:38:46.291Z,3.27
2022-12-08T08:41:19.766Z,3.62
2022-12-08T08:43:53.221Z,3.67
2022-12-08T08:46:28.180Z,3.58
2022-12-08T08:49:02.254Z,3.47
2022-12-08T08:51:35.345Z,3.44
2022-12-08T08:54:08.795Z,3.18
2022-12-08T08:56:42.337Z,2.99
2022-12-08T08:59:15.862Z,2.86
2022-12-08T09:01:50.961Z,2.69
2022-12-08T09:04:25.781Z,2.57
2022-12-08T09:06:59.624Z,2.48
2022-12-08T09:09:33.141Z,2.46
2022-12-08T09:12:07.545Z,2.41
2022-12-08T09:14:41.229Z,2.36
2022-12-08T09:17:16.275Z,2.36
2022-12-08T09:19:49.957Z,2.40
2022-12-08T09:22:23.869Z,2.42
2022-12-08T09:24:57.129Z,2.52
2022-12-08T09:27:30.679Z,2.43
2022-12-08T09:30:04.901Z,2.46
2022-12-08T09:32:40.179Z,2.58
2022-12-08T09:35:13.775Z,2.71
2022-12-08T09:37:47.485Z,2.86
2022-12-08T09:40:24.028Z,3.22
2022-12-08T09:43:06.470Z,3.44
2022-12-08T09:45:40.599Z,3.75
2022-12-08T09:48:20.281Z,3.92
2022-12-08T09:50:56.547Z,4.06
2022-12-08T09:53:36.068Z,4.14
2022-12-08T09:56:16.355Z,4.17
2022-12-08T09:58:54.691Z,4.16
2022-12-08T10:01:30.392Z,4.21
2022-12-08T10:04:07.619Z,4.51
2022-12-08T10:06:48.428Z,4.90
2022-12-08T10:09:30.632Z,5.26
2022-12-08T10:12:13.808Z,6.36
2022-12-08T10:14:54.702Z,7.18
2022-12-08T10:17:34.568Z,7.96
2022-12-08T10:20:17.154Z,8.69
2022-12-08T10:22:57.383Z,9.34
2022-12-08T10:25:37.733Z,9.79
2022-12-08T10:28:11.758Z,10.12
2022-12-08T10:30:45.204Z,10.16
2022-12-08T10:33:20.885Z,9.82
2022-12-08T10:35:58.555Z,9.27
2022-12-08T10:38:34.268Z,8.65
2022-12-08T10:41:13.779Z,8.11
2022-12-08T10:43:49.557Z,7.56
2022-12-08T10:46:25.971Z,7.03
2022-12-08T10:49:13.764Z,6.61
2022-12-08T10:51:48.630Z,6.20
2022-12-08T10:54:30.350Z,5.89
2022-12-08T10:57:03.775Z,5.59
2022-12-08T10:59:37.257Z,5.36
2022-12-08T11:02:19.716Z,5.17
2022-12-08T11:05:00.589Z,4.98
2022-12-08T11:07:35.484Z,4.80
2022-12-08T11:10:20.281Z,4.69
2022-12-08T11:12:53.767Z,4.56
2022-12-08T11:15:27.421Z,4.45
2022-12-08T11:18:08.012Z,4.34
2022-12-08T11:20:42.961Z,4.19
2022-12-08T11:23:25.487Z,4.10
2022-12-08T11:26:06.375Z,4.05
2022-12-08T11:28:40.489Z,4.03
2022-12-08T11:31:23.708Z,4.05
2022-12-08T11:33:57.919Z,4.08
2022-12-08T11:36:34.891Z,4.12
2022-12-08T11:39:14.027Z,4.19
2022-12-08T11:41:47.952Z,4.22
2022-12-08T11:44:30.304Z,4.22
2022-12-08T11:47:10.018Z,4.19
2022-12-08T11:52:25.531Z,4.14
2022-12-08T11:55:07.339Z,4.14
2022-12-08T11:57:40.869Z,4.15
2022-12-08T12:00:17.727Z,4.14
2022-12-08T12:02:58.003Z,4.14
2022-12-08T12:06:08.815Z,4.10
2022-12-08T12:08:46.738Z,4.11
2022-12-08T12:11:45.796Z,4.09
2022-12-08T12:14:41.797Z,4.09
2022-12-08T12:17:33.912Z,4.02
2022-12-08T12:20:16.012Z,3.92
2022-12-08T12:22:53.287Z,3.89
2022-12-08T12:25:28.610Z,3.91
2022-12-08T12:28:06.956Z,3.93
2022-12-08T12:30:55.249Z,3.95
2022-12-08T12:33:31.402Z,3.92
2022-12-08T12:36:08.324Z,3.92
2022-12-08T12:39:04.372Z,3.90
2022-12-08T12:41:44.863Z,3.90
2022-12-08T12:44:40.325Z,3.97
2022-12-08T12:47:16.546Z,3.97
2022-12-08T12:50:37.229Z,4.09
2022-12-08T12:53:43.869Z,4.20
2022-12-08T12:56:50.367Z,4.36
2022-12-08T12:59:42.675Z,4.51
2022-12-08T13:02:26.201Z,4.64
2022-12-08T13:05:03.664Z,4.69
2022-12-08T13:07:43.856Z,4.76
2022-12-08T13:10:21.572Z,4.87
2022-12-08T13:13:17.677Z,5.01
2022-12-08T13:15:54.627Z,5.04
2022-12-08T13:18:36.509Z,5.04
2022-12-08T13:21:15.238Z,5.03
2022-12-08T13:23:50.537Z,4.97
2022-12-08T13:26:25.890Z,4.90
2022-12-08T13:29:23.865Z,4.88
2022-12-08T13:31:59.322Z,4.77
2022-12-08T13:34:39.403Z,4.69
2022-12-08T13:37:26.649Z,4.65
2022-12-08T13:40:03.931Z,4.58
2022-12-08T13:42:45.054Z,4.52
2022-12-08T13:48:44.619Z,4.38
2022-12-08T13:57:26.268Z,4.19
2022-12-08T14:00:03.053Z,4.12
2022-12-08T14:02:48.872Z,4.06
2022-12-08T14:05:47.733Z,4.00
2022-12-08T14:08:57.456Z,3.94
2022-12-08T14:11:34.759Z,3.88
2022-12-08T14:14:10.962Z,3.84
2022-12-08T14:16:49.800Z,3.79
2022-12-08T14:19:25.712Z,3.77
2022-12-08T14:22:02.519Z,3.73
2022-12-08T14:24:36.239Z,3.72
2022-12-08T14:27:13.421Z,3.69
2022-12-08T14:29:48.829Z,3.68
2022-12-08T14:32:28.801Z,3.67
2022-12-08T14:35:12.622Z,3.66
2022-12-08T14:37:49.691Z,3.66
2022-12-08T14:40:26.077Z,3.63
2022-12-08T14:43:16.406Z,3.64
2022-12-08T14:45:55.649Z,3.56
2022-12-08T14:48:42.294Z,3.54
2022-12-08T14:51:23.886Z,3.49
2022-12-08T14:54:01.387Z,3.44
2022-12-08T14:56:38.671Z,3.40
2022-12-08T14:59:15.922Z,3.37
2022-12-08T15:01:51.204Z,3.35
2022-12-08T15:04:27.628Z,3.33
2022-12-08T15:07:06.270Z,3.32
2022-12-08T15:09:43.657Z,3.31
2022-12-08T15:12:27.129Z,3.29
2022-12-08T15:15:15.226Z,3.29
2022-12-08T15:17:52.480Z,3.31
2022-12-08T15:20:35.583Z,3.33
2022-12-08T15:23:29.823Z,3.38
2022-12-08T15:26:06.578Z,3.38
2022-12-08T15:28:40.176Z,3.39
2022-12-08T15:31:13.856Z,3.40
2022-12-08T15:33:47.723Z,3.41
2022-12-08T15:36:21.174Z,3.42
2022-12-08T15:38:54.786Z,3.42
2022-12-08T15:41:29.682Z,3.42
2022-12-08T15:44:03.239Z,3.42
2022-12-08T15:46:38.121Z,3.40
2022-12-08T15:49:18.406Z,3.39
2022-12-08T15:51:57.404Z,3.36
2022-12-08T15:54:38.488Z,3.34
2022-12-08T16:00:51.929Z,3.34
2022-12-08T16:04:14.292Z,3.30
2022-12-08T16:09:20.887Z,3.36
2022-12-08T16:12:12.037Z,3.37
2022-12-08T16:15:48.480Z,3.37
2022-12-08T16:17:41.285Z,3.40
2022-12-08T16:20:17.129Z,3.40
2022-12-08T16:22:59.239Z,3.40
2022-12-08T16:26:16.320Z,3.42
2022-12-08T16:31:30.002Z,3.46
2022-12-08T16:34:03.837Z,3.47
2022-12-08T16:36:37.314Z,3.49
2022-12-08T16:39:13.914Z,3.50
2022-12-08T16:42:04.868Z,3.51
2022-12-08T16:44:42.302Z,3.51
2022-12-08T16:47:17.242Z,3.49
2022-12-08T16:49:50.648Z,3.49
2022-12-08T16:52:24.329Z,3.50
2022-12-08T16:55:00.111Z,3.51
2022-12-08T16:57:33.547Z,3.51
2022-12-08T17:00:09.615Z,3.51
2022-12-08T17:02:45.333Z,3.51
2022-12-08T17:05:21.369Z,3.51
2022-12-08T17:07:55.569Z,3.54
2022-12-08T17:10:31.763Z,3.55
2022-12-08T17:13:05.466Z,3.55
2022-12-08T17:15:41.189Z,3.57
2022-12-08T17:18:16.189Z,3.59
2022-12-08T17:20:49.659Z,3.61
2022-12-08T17:23:23.142Z,3.61
2022-12-08T17:26:01.182Z,3.61
2022-12-08T17:28:58.858Z,3.61
2022-12-08T17:31:30.227Z,3.63
2022-12-08T17:34:09.728Z,3.64
2022-12-08T17:36:43.371Z,3.66
2022-12-08T17:39:18.914Z,3.66
2022-12-08T17:41:55.902Z,3.66
2022-12-08T17:44:29.580Z,3.67
2022-12-08T17:47:04.010Z,3.67
2022-12-08T17:49:42.077Z,3.66
2022-12-08T17:52:21.497Z,3.67
2022-12-08T17:54:55.100Z,3.66
2022-12-08T17:57:28.563Z,3.64
2022-12-08T18:00:02.020Z,3.65
2022-12-08T18:02:45.340Z,3.63
2022-12-08T18:05:21.102Z,3.61
2022-12-08T18:07:54.762Z,3.58
2022-12-08T18:10:28.547Z,3.53
2022-12-08T18:13:05.678Z,3.49
2022-12-08T18:15:39.516Z,3.42
2022-12-08T18:18:13.023Z,3.36
2022-12-08T18:20:48.048Z,3.27
2022-12-08T18:23:21.488Z,3.19
2022-12-08T18:25:54.966Z,3.14
2022-12-08T18:28:28.424Z,3.08
2022-12-08T18:31:02.159Z,3.04
2022-12-08T18:33:35.675Z,2.99
2022-12-08T18:36:13.033Z,2.92
2022-12-08T18:38:46.568Z,2.85
2022-12-08T18:41:23.531Z,2.79
2022-12-08T18:43:58.280Z,2.74
2022-12-08T18:46:31.916Z,2.68
2022-12-08T18:49:05.470Z,2.63
2022-12-08T18:51:40.498Z,2.56
2022-12-08T18:54:14.476Z,2.51
2022-12-08T18:56:47.646Z,2.58
2022-12-08T18:59:22.988Z,2.42
2022-12-08T19:01:57.341Z,2.35
2022-12-08T19:04:34.683Z,2.31
2022-12-08T19:07:12.544Z,2.27
2022-12-08T19:09:46.013Z,2.23
2022-12-08T19:12:19.505Z,2.20
2022-12-08T19:14:52.986Z,2.15
2022-12-08T19:17:26.965Z,2.11
2022-12-08T19:20:00.118Z,2.20
2022-12-08T19:22:35.025Z,2.06
2022-12-08T19:25:09.280Z,2.01
2022-12-08T19:27:42.726Z,1.99
2022-12-08T19:30:16.943Z,1.95
2022-12-08T19:32:51.610Z,1.91
2022-12-08T19:35:25.281Z,1.87
2022-12-08T19:38:00.317Z,1.84
2022-12-08T19:40:51.234Z,1.82
2022-12-08T19:43:47.601Z,1.77
2022-12-08T19:46:21.145Z,1.74
2022-12-08T19:48:55.696Z,1.72
2022-12-08T19:51:29.331Z,1.69
2022-12-08T19:54:06.872Z,1.67
2022-12-08T19:56:40.378Z,1.65
2022-12-08T19:59:15.887Z,1.61
2022-12-08T20:01:49.731Z,1.58
2022-12-08T20:04:24.185Z,1.56
2022-12-08T20:06:58.911Z,1.54
2022-12-08T20:09:33.900Z,1.54
2022-12-08T20:12:08.359Z,1.53
2022-12-08T20:14:45.891Z,1.50
2022-12-08T20:17:19.709Z,1.47
2022-12-08T20:19:53.417Z,1.46
2022-12-08T20:22:26.907Z,1.44
2022-12-08T20:25:04.804Z,1.42
2022-12-08T20:27:38.293Z,1.40
2022-12-08T20:30:16.991Z,1.40
2022-12-08T20:32:50.743Z,1.37
2022-12-08T20:35:24.595Z,1.36
2022-12-08T20:38:00.982Z,1.36
2022-12-08T20:40:35.989Z,1.35
2022-12-08T20:43:11.531Z,1.33
2022-12-08T20:45:45.037Z,1.33
2022-12-08T20:48:19.097Z,1.31
2022-12-08T20:50:52.904Z,1.30
2022-12-08T20:53:26.478Z,1.30
2022-12-08T20:56:01.933Z,1.30
2022-12-08T20:58:37.363Z,1.29
2022-12-08T21:01:14.964Z,1.29
2022-12-08T21:03:50.513Z,1.27
2022-12-08T21:06:27.019Z,1.27
2022-12-08T21:09:01.567Z,1.27
2022-12-08T21:11:37.165Z,1.26
2022-12-08T21:14:10.837Z,1.26
2022-12-08T21:16:45.931Z,1.25
2022-12-08T21:19:20.834Z,1.23
2022-12-08T21:21:54.456Z,1.22
2022-12-08T21:24:34.233Z,1.22
2022-12-08T21:27:10.171Z,1.20
2022-12-08T21:29:44.905Z,1.21
2022-12-08T21:32:18.422Z,1.20
2022-12-08T21:34:52.087Z,1.19
2022-12-08T21:37:28.723Z,1.19
2022-12-08T21:40:02.205Z,1.16
2022-12-08T21:42:46.829Z,1.15
2022-12-08T21:45:21.972Z,1.13
2022-12-08T21:47:55.857Z,1.14
2022-12-08T21:50:29.713Z,1.13
2022-12-08T21:53:03.489Z,1.12
2022-12-08T21:55:39.788Z,1.11
2022-12-08T21:58:14.801Z,1.11
2022-12-08T22:00:48.526Z,1.10
2022-12-08T22:03:22.199Z,1.08
2022-12-08T22:05:55.854Z,1.20
2022-12-08T22:08:29.707Z,1.07
2022-12-08T22:11:04.542Z,1.05
2022-12-08T22:13:40.968Z,1.03
2022-12-08T22:16:15.513Z,1.02
2022-12-08T22:18:49.362Z,1.00
2022-12-08T22:21:23.091Z,1.10
2022-12-08T22:24:02.996Z,0.97
2022-12-08T22:26:36.834Z,0.94
2022-12-08T22:29:12.171Z,0.92
2022-12-08T22:31:46.249Z,0.91
2022-12-08T22:34:19.579Z,1.01
2022-12-08T22:36:56.100Z,0.90
2022-12-08T22:39:34.332Z,0.86
2022-12-08T22:42:10.172Z,0.86
2022-12-08T22:44:45.322Z,0.84
2022-12-08T22:47:21.815Z,0.83
2022-12-08T22:49:55.524Z,0.82
2022-12-08T22:52:29.373Z,0.80
2022-12-08T22:55:02.872Z,0.92
2022-12-08T22:57:36.524Z,0.80
2022-12-08T23:00:20.655Z,0.80
2022-12-08T23:03:48.860Z,0.81
2022-12-08T23:06:25.438Z,0.74
2022-12-08T23:09:00.942Z,0.70
2022-12-08T23:11:36.280Z,0.69
2022-12-08T23:14:10.074Z,0.67
2022-12-08T23:16:45.583Z,0.67
2022-12-08T23:19:20.971Z,0.65
2022-12-08T23:21:54.600Z,0.64
2022-12-08T23:24:28.347Z,0.62
2022-12-08T23:27:02.322Z,0.62
2022-12-08T23:29:35.638Z,0.73
2022-12-08T23:32:11.719Z,0.62
2022-12-08T23:34:47.014Z,0.59
2022-12-08T23:37:21.922Z,0.56
2022-12-08T23:40:11.013Z,0.57
2022-12-08T23:42:46.885Z,0.54
2022-12-08T23:45:20.763Z,0.54
2022-12-08T23:47:56.007Z,0.53
2022-12-08T23:50:35.203Z,0.53
2022-12-08T23:53:21.732Z,0.54
2022-12-08T23:56:00.787Z,0.55
2022-12-08T23:58:35.591Z,0.56
